sensor_id;sensor_type;location;lat;lon;timestamp;pressure;altitude;pressure_sealevel;temperature;humidity
67345;BME280;54230;52.402;6.276;2023-04-07T00:00:00;101420.0;;;11.0;82.5
67345;BME280;54230;52.402;6.276;2023-04-07T00:05:00;101420.0;;;11.0;83.6
67345;BME280;54230;52.402;6.276;2023-04-07T00:10:00;101420.0;;;10.9;83.2
67345;BME280;54230;52.402;6.276;2023-04-07T00:15:00;101420.0;;;10.9;82.9
67345;BME280;54230;52.402;6.276;2023-04-07T00:20:00;101420.0;;;10.9;82.6
67345;BME280;54230;52.402;6.276;2023-04-07T00:25:00;101420.0;;;10.9;83.1
67345;BME280;54230;52.402;6.276;2023-04-07T00:30:00;101420.0;;;11.0;84.0
67345;BME280;54230;52.402;6.276;2023-04-07T00:35:00;101420.0;;;11.1;84.4
67345;BME280;54230;52.402;6.276;2023-04-07T00:40:00;101420.0;;;11.1;84.1
67345;BME280;54230;52.402;6.276;2023-04-07T00:45:00;101420.0;;;11.2;83.9
67345;BME280;54230;52.402;6.276;2023-04-07T00:50:02;101420.0;;;11.2;82.7
67345;BME280;54230;52.402;6.276;2023-04-07T00:55:00;101420.0;;;11.1;82.2
67345;BME280;54230;52.402;6.276;2023-04-07T01:00:00;101420.0;;;11.3;83.4
67345;BME280;54230;52.402;6.276;2023-04-07T01:05:06;101420.0;;;11.2;82.3
67345;BME280;54230;52.402;6.276;2023-04-07T01:10:02;101420.0;;;11.3;82.7
67345;BME280;54230;52.402;6.276;2023-04-07T01:15:06;101420.0;;;11.3;83.1
67345;BME280;54230;52.402;6.276;2023-04-07T01:20:01;101420.0;;;11.1;82.4
67345;BME280;54230;52.402;6.276;2023-04-07T01:30:02;101420.0;;;11.1;83.5
67345;BME280;54230;52.402;6.276;2023-04-07T01:35:01;101420.0;;;11.0;83.1
67345;BME280;54230;52.402;6.276;2023-04-07T01:40:01;101420.0;;;10.9;84.1
67345;BME280;54230;52.402;6.276;2023-04-07T01:45:00;101420.0;;;10.9;83.8
67345;BME280;54230;52.402;6.276;2023-04-07T01:50:01;101420.0;;;11.0;83.7
67345;BME280;54230;52.402;6.276;2023-04-07T01:55:00;101430.0;;;11.0;83.8
67345;BME280;54230;52.402;6.276;2023-04-07T02:00:00;101430.0;;;11.0;83.8
67345;BME280;54230;52.402;6.276;2023-04-07T02:05:04;101420.0;;;11.0;84.0
67345;BME280;54230;52.402;6.276;2023-04-07T02:10:02;101420.0;;;11.0;84.2
67345;BME280;54230;52.402;6.276;2023-04-07T02:15:01;101420.0;;;11.0;84.3
67345;BME280;54230;52.402;6.276;2023-04-07T02:20:01;101420.0;;;11.1;84.6
67345;BME280;54230;52.402;6.276;2023-04-07T02:25:00;101420.0;;;11.1;84.4
67345;BME280;54230;52.402;6.276;2023-04-07T02:30:00;101430.0;;;11.1;84.2
67345;BME280;54230;52.402;6.276;2023-04-07T02:35:00;101430.0;;;11.1;84.4
67345;BME280;54230;52.402;6.276;2023-04-07T02:40:00;101430.0;;;11.1;84.5
67345;BME280;54230;52.402;6.276;2023-04-07T02:45:00;101440.0;;;11.1;84.6
67345;BME280;54230;52.402;6.276;2023-04-07T02:50:00;101430.0;;;11.1;84.6
67345;BME280;54230;52.402;6.276;2023-04-07T02:55:00;101440.0;;;11.1;84.9
67345;BME280;54230;52.402;6.276;2023-04-07T03:00:00;101440.0;;;10.9;85.6
67345;BME280;54230;52.402;6.276;2023-04-07T03:05:00;101440.0;;;11.0;85.7
67345;BME280;54230;52.402;6.276;2023-04-07T03:10:00;101450.0;;;11.1;85.8
67345;BME280;54230;52.402;6.276;2023-04-07T03:15:00;101450.0;;;11.0;85.6
67345;BME280;54230;52.402;6.276;2023-04-07T03:20:00;101450.0;;;10.9;85.8
67345;BME280;54230;52.402;6.276;2023-04-07T03:25:00;101450.0;;;10.9;86.1
67345;BME280;54230;52.402;6.276;2023-04-07T03:30:00;101450.0;;;10.9;86.4
67345;BME280;54230;52.402;6.276;2023-04-07T03:35:00;101440.0;;;10.8;87.1
67345;BME280;54230;52.402;6.276;2023-04-07T03:40:00;101440.0;;;10.7;87.2
67345;BME280;54230;52.402;6.276;2023-04-07T03:45:00;101440.0;;;10.7;87.5
67345;BME280;54230;52.402;6.276;2023-04-07T03:50:00;101440.0;;;10.7;87.3
67345;BME280;54230;52.402;6.276;2023-04-07T03:55:00;101450.0;;;10.8;88.1
67345;BME280;54230;52.402;6.276;2023-04-07T04:00:00;101450.0;;;11.0;87.8
67345;BME280;54230;52.402;6.276;2023-04-07T04:05:00;101460.0;;;11.0;87.1
67345;BME280;54230;52.402;6.276;2023-04-07T04:10:00;101460.0;;;11.0;86.7
67345;BME280;54230;52.402;6.276;2023-04-07T04:15:00;101460.0;;;11.0;86.4
67345;BME280;54230;52.402;6.276;2023-04-07T04:20:00;101470.0;;;11.0;86.4
67345;BME280;54230;52.402;6.276;2023-04-07T04:25:00;101480.0;;;11.2;86.9
67345;BME280;54230;52.402;6.276;2023-04-07T04:30:00;101480.0;;;11.2;86.4
67345;BME280;54230;52.402;6.276;2023-04-07T04:35:00;101480.0;;;11.1;86.1
67345;BME280;54230;52.402;6.276;2023-04-07T04:40:00;101480.0;;;11.0;86.2
67345;BME280;54230;52.402;6.276;2023-04-07T04:45:00;101480.0;;;11.1;86.0
67345;BME280;54230;52.402;6.276;2023-04-07T04:50:00;101480.0;;;11.1;86.1
67345;BME280;54230;52.402;6.276;2023-04-07T04:55:00;101490.0;;;11.1;86.0
67345;BME280;54230;52.402;6.276;2023-04-07T05:00:00;101490.0;;;11.1;85.8
67345;BME280;54230;52.402;6.276;2023-04-07T05:05:00;101490.0;;;11.2;86.0
67345;BME280;54230;52.402;6.276;2023-04-07T05:10:00;101500.0;;;11.3;85.2
67345;BME280;54230;52.402;6.276;2023-04-07T05:15:00;101500.0;;;11.3;84.8
67345;BME280;54230;52.402;6.276;2023-04-07T05:20:00;101500.0;;;11.3;84.5
67345;BME280;54230;52.402;6.276;2023-04-07T05:25:00;101510.0;;;11.3;84.5
67345;BME280;54230;52.402;6.276;2023-04-07T05:30:00;101510.0;;;11.3;84.4
67345;BME280;54230;52.402;6.276;2023-04-07T05:35:00;101520.0;;;11.3;84.4
67345;BME280;54230;52.402;6.276;2023-04-07T05:40:00;101520.0;;;11.4;85.6
67345;BME280;54230;52.402;6.276;2023-04-07T05:45:00;101520.0;;;11.6;86.6
67345;BME280;54230;52.402;6.276;2023-04-07T05:50:00;101530.0;;;11.6;85.4
67345;BME280;54230;52.402;6.276;2023-04-07T05:55:00;101530.0;;;11.6;85.9
67345;BME280;54230;52.402;6.276;2023-04-07T06:00:00;101530.0;;;11.7;84.7
67345;BME280;54230;52.402;6.276;2023-04-07T06:05:00;101540.0;;;11.6;84.6
67345;BME280;54230;52.402;6.276;2023-04-07T06:10:00;101540.0;;;11.6;84.3
67345;BME280;54230;52.402;6.276;2023-04-07T06:15:00;101540.0;;;11.6;85.1
67345;BME280;54230;52.402;6.276;2023-04-07T06:20:00;101550.0;;;11.7;85.0
67345;BME280;54230;52.402;6.276;2023-04-07T06:25:00;101550.0;;;11.7;85.1
67345;BME280;54230;52.402;6.276;2023-04-07T06:30:00;101550.0;;;11.7;84.6
67345;BME280;54230;52.402;6.276;2023-04-07T06:35:00;101560.0;;;11.7;84.4
67345;BME280;54230;52.402;6.276;2023-04-07T06:40:00;101560.0;;;11.5;84.4
67345;BME280;54230;52.402;6.276;2023-04-07T06:45:00;101570.0;;;11.7;85.2
67345;BME280;54230;52.402;6.276;2023-04-07T06:50:00;101570.0;;;11.7;85.1
67345;BME280;54230;52.402;6.276;2023-04-07T06:55:00;101580.0;;;11.8;85.5
67345;BME280;54230;52.402;6.276;2023-04-07T07:00:00;101580.0;;;11.9;84.7
67345;BME280;54230;52.402;6.276;2023-04-07T07:05:00;101580.0;;;11.8;84.3
67345;BME280;54230;52.402;6.276;2023-04-07T07:10:00;101580.0;;;11.9;84.6
67345;BME280;54230;52.402;6.276;2023-04-07T07:15:00;101590.0;;;11.8;83.9
67345;BME280;54230;52.402;6.276;2023-04-07T07:20:00;101590.0;;;11.9;84.2
67345;BME280;54230;52.402;6.276;2023-04-07T07:25:00;101590.0;;;11.9;84.1
67345;BME280;54230;52.402;6.276;2023-04-07T07:30:00;101600.0;;;11.9;83.5
67345;BME280;54230;52.402;6.276;2023-04-07T07:35:00;101600.0;;;12.1;83.7
67345;BME280;54230;52.402;6.276;2023-04-07T07:40:00;101600.0;;;12.1;83.6
67345;BME280;54230;52.402;6.276;2023-04-07T07:45:00;101610.0;;;12.1;83.3
67345;BME280;54230;52.402;6.276;2023-04-07T07:50:00;101620.0;;;12.0;82.8
67345;BME280;54230;52.402;6.276;2023-04-07T07:55:00;101630.0;;;12.0;83.0
67345;BME280;54230;52.402;6.276;2023-04-07T08:00:00;101630.0;;;12.0;84.5
67345;BME280;54230;52.402;6.276;2023-04-07T08:05:00;101640.0;;;12.1;83.6
67345;BME280;54230;52.402;6.276;2023-04-07T08:10:00;101650.0;;;12.2;83.7
67345;BME280;54230;52.402;6.276;2023-04-07T08:15:00;101650.0;;;12.3;82.9
67345;BME280;54230;52.402;6.276;2023-04-07T08:20:00;101650.0;;;12.4;82.8
67345;BME280;54230;52.402;6.276;2023-04-07T08:25:00;101660.0;;;12.5;82.5
67345;BME280;54230;52.402;6.276;2023-04-07T08:30:02;101660.0;;;12.6;82.4
67345;BME280;54230;52.402;6.276;2023-04-07T08:35:00;101670.0;;;12.8;82.7
67345;BME280;54230;52.402;6.276;2023-04-07T08:40:01;101670.0;;;12.8;82.4
67345;BME280;54230;52.402;6.276;2023-04-07T08:45:03;101680.0;;;12.8;81.9
67345;BME280;54230;52.402;6.276;2023-04-07T08:50:02;101680.0;;;12.5;81.3
67345;BME280;54230;52.402;6.276;2023-04-07T08:55:00;101690.0;;;12.4;82.4
67345;BME280;54230;52.402;6.276;2023-04-07T09:00:01;101690.0;;;12.3;82.9
67345;BME280;54230;52.402;6.276;2023-04-07T09:05:03;101690.0;;;12.3;83.3
67345;BME280;54230;52.402;6.276;2023-04-07T09:10:01;101690.0;;;12.2;83.8
67345;BME280;54230;52.402;6.276;2023-04-07T09:15:00;101700.0;;;12.3;84.3
67345;BME280;54230;52.402;6.276;2023-04-07T09:20:01;101700.0;;;12.4;84.1
67345;BME280;54230;52.402;6.276;2023-04-07T09:25:09;101700.0;;;12.5;84.9
67345;BME280;54230;52.402;6.276;2023-04-07T09:30:10;101710.0;;;12.9;84.7
67345;BME280;54230;52.402;6.276;2023-04-07T09:35:00;101710.0;;;13.2;84.7
67345;BME280;54230;52.402;6.276;2023-04-07T09:40:00;101710.0;;;13.4;83.7
67345;BME280;54230;52.402;6.276;2023-04-07T09:45:00;101710.0;;;13.6;82.9
67345;BME280;54230;52.402;6.276;2023-04-07T09:50:00;101710.0;;;13.3;82.2
67345;BME280;54230;52.402;6.276;2023-04-07T09:55:00;101720.0;;;13.5;83.4
67345;BME280;54230;52.402;6.276;2023-04-07T10:00:01;101720.0;;;13.5;83.4
67345;BME280;54230;52.402;6.276;2023-04-07T10:05:01;101730.0;;;13.6;83.0
67345;BME280;54230;52.402;6.276;2023-04-07T10:10:01;101730.0;;;13.9;82.9
67345;BME280;54230;52.402;6.276;2023-04-07T10:15:00;101730.0;;;14.1;82.1
67345;BME280;54230;52.402;6.276;2023-04-07T10:20:01;101730.0;;;14.1;81.4
67345;BME280;54230;52.402;6.276;2023-04-07T10:25:04;101740.0;;;14.3;82.3
67345;BME280;54230;52.402;6.276;2023-04-07T10:30:02;101740.0;;;14.6;81.6
67345;BME280;54230;52.402;6.276;2023-04-07T10:35:00;101750.0;;;14.6;80.1
67345;BME280;54230;52.402;6.276;2023-04-07T10:45:00;101750.0;;;14.6;81.0
67345;BME280;54230;52.402;6.276;2023-04-07T10:50:14;101760.0;;;14.5;80.1
67345;BME280;54230;52.402;6.276;2023-04-07T11:00:13;101760.0;;;13.2;80.7
67345;BME280;54230;52.402;6.276;2023-04-07T11:05:01;101770.0;;;12.9;81.9
67345;BME280;54230;52.402;6.276;2023-04-07T11:10:08;101770.0;;;13.2;82.9
67345;BME280;54230;52.402;6.276;2023-04-07T11:15:18;101770.0;;;13.4;82.4
67345;BME280;54230;52.402;6.276;2023-04-07T11:20:00;101780.0;;;13.7;82.7
67345;BME280;54230;52.402;6.276;2023-04-07T11:25:00;101780.0;;;13.9;81.6
67345;BME280;54230;52.402;6.276;2023-04-07T11:30:00;101780.0;;;13.7;80.2
67345;BME280;54230;52.402;6.276;2023-04-07T11:35:04;101790.0;;;14.0;80.9
67345;BME280;54230;52.402;6.276;2023-04-07T11:40:00;101790.0;;;13.9;79.0
67345;BME280;54230;52.402;6.276;2023-04-07T11:45:00;101800.0;;;14.0;79.0
67345;BME280;54230;52.402;6.276;2023-04-07T11:50:00;101790.0;;;13.8;77.5
67345;BME280;54230;52.402;6.276;2023-04-07T11:55:00;101800.0;;;13.9;77.5
67345;BME280;54230;52.402;6.276;2023-04-07T12:00:05;101810.0;;;14.0;76.0
67345;BME280;54230;52.402;6.276;2023-04-07T12:05:00;101810.0;;;14.0;76.5
67345;BME280;54230;52.402;6.276;2023-04-07T12:10:16;101820.0;;;14.0;76.3
67345;BME280;54230;52.402;6.276;2023-04-07T12:15:00;101820.0;;;13.9;75.6
67345;BME280;54230;52.402;6.276;2023-04-07T12:20:00;101820.0;;;13.9;75.2
67345;BME280;54230;52.402;6.276;2023-04-07T12:25:00;101830.0;;;14.2;74.8
67345;BME280;54230;52.402;6.276;2023-04-07T12:30:00;101830.0;;;14.5;75.4
67345;BME280;54230;52.402;6.276;2023-04-07T12:35:00;101830.0;;;15.0;73.5
67345;BME280;54230;52.402;6.276;2023-04-07T12:40:00;101830.0;;;15.5;74.0
67345;BME280;54230;52.402;6.276;2023-04-07T12:45:00;101830.0;;;15.9;73.1
67345;BME280;54230;52.402;6.276;2023-04-07T12:50:00;101840.0;;;16.1;70.6
67345;BME280;54230;52.402;6.276;2023-04-07T12:55:00;101840.0;;;15.9;67.8
67345;BME280;54230;52.402;6.276;2023-04-07T13:00:00;101840.0;;;15.6;69.1
67345;BME280;54230;52.402;6.276;2023-04-07T13:05:00;101850.0;;;15.3;69.2
67345;BME280;54230;52.402;6.276;2023-04-07T13:10:00;101850.0;;;15.2;69.5
67345;BME280;54230;52.402;6.276;2023-04-07T13:15:00;101850.0;;;15.2;68.9
67345;BME280;54230;52.402;6.276;2023-04-07T13:20:01;101860.0;;;15.2;69.0
67345;BME280;54230;52.402;6.276;2023-04-07T13:25:00;101860.0;;;14.9;67.4
67345;BME280;54230;52.402;6.276;2023-04-07T13:30:00;101860.0;;;14.9;67.5
67345;BME280;54230;52.402;6.276;2023-04-07T13:35:00;101860.0;;;15.1;68.2
67345;BME280;54230;52.402;6.276;2023-04-07T13:40:00;101870.0;;;15.2;67.6
67345;BME280;54230;52.402;6.276;2023-04-07T13:45:00;101870.0;;;15.2;68.0
67345;BME280;54230;52.402;6.276;2023-04-07T13:50:00;101870.0;;;14.7;66.8
67345;BME280;54230;52.402;6.276;2023-04-07T13:55:00;101870.0;;;14.5;67.9
67345;BME280;54230;52.402;6.276;2023-04-07T14:00:00;101870.0;;;14.7;69.0
67345;BME280;54230;52.402;6.276;2023-04-07T14:05:00;101870.0;;;14.8;68.9
67345;BME280;54230;52.402;6.276;2023-04-07T14:10:00;101880.0;;;14.9;69.0
67345;BME280;54230;52.402;6.276;2023-04-07T14:15:00;101880.0;;;14.8;67.6
67345;BME280;54230;52.402;6.276;2023-04-07T14:20:00;101880.0;;;14.8;67.5
67345;BME280;54230;52.402;6.276;2023-04-07T14:25:00;101880.0;;;14.8;68.1
67345;BME280;54230;52.402;6.276;2023-04-07T14:30:00;101880.0;;;14.9;67.9
67345;BME280;54230;52.402;6.276;2023-04-07T14:35:00;101880.0;;;15.0;67.1
67345;BME280;54230;52.402;6.276;2023-04-07T14:40:00;101890.0;;;15.1;67.1
67345;BME280;54230;52.402;6.276;2023-04-07T14:45:00;101890.0;;;15.0;67.3
67345;BME280;54230;52.402;6.276;2023-04-07T14:50:00;101900.0;;;15.0;66.5
67345;BME280;54230;52.402;6.276;2023-04-07T14:55:00;101890.0;;;15.0;65.6
67345;BME280;54230;52.402;6.276;2023-04-07T15:00:01;101900.0;;;15.1;66.7
67345;BME280;54230;52.402;6.276;2023-04-07T15:05:00;101900.0;;;15.2;66.8
67345;BME280;54230;52.402;6.276;2023-04-07T15:10:00;101900.0;;;15.2;65.1
67345;BME280;54230;52.402;6.276;2023-04-07T15:15:00;101900.0;;;15.3;65.5
67345;BME280;54230;52.402;6.276;2023-04-07T15:20:00;101910.0;;;15.4;64.5
67345;BME280;54230;52.402;6.276;2023-04-07T15:25:00;101920.0;;;15.4;64.9
67345;BME280;54230;52.402;6.276;2023-04-07T15:30:00;101910.0;;;15.6;64.5
67345;BME280;54230;52.402;6.276;2023-04-07T15:35:00;101910.0;;;15.9;63.5
67345;BME280;54230;52.402;6.276;2023-04-07T15:40:00;101920.0;;;16.1;65.5
67345;BME280;54230;52.402;6.276;2023-04-07T15:45:00;101920.0;;;16.2;65.5
67345;BME280;54230;52.402;6.276;2023-04-07T15:50:00;101920.0;;;16.3;63.8
67345;BME280;54230;52.402;6.276;2023-04-07T15:55:00;101930.0;;;16.2;64.0
67345;BME280;54230;52.402;6.276;2023-04-07T16:00:00;101930.0;;;16.3;63.8
67345;BME280;54230;52.402;6.276;2023-04-07T16:05:01;101930.0;;;16.0;60.3
67345;BME280;54230;52.402;6.276;2023-04-07T16:10:00;101940.0;;;16.0;63.8
67345;BME280;54230;52.402;6.276;2023-04-07T16:15:00;101940.0;;;16.2;63.2
67345;BME280;54230;52.402;6.276;2023-04-07T16:20:00;101940.0;;;16.0;61.8
67345;BME280;54230;52.402;6.276;2023-04-07T16:25:00;101950.0;;;16.0;62.8
67345;BME280;54230;52.402;6.276;2023-04-07T16:30:01;101950.0;;;15.9;62.0
67345;BME280;54230;52.402;6.276;2023-04-07T16:35:00;101950.0;;;15.9;62.6
67345;BME280;54230;52.402;6.276;2023-04-07T16:40:00;101950.0;;;15.9;62.7
67345;BME280;54230;52.402;6.276;2023-04-07T16:45:01;101950.0;;;15.9;61.8
67345;BME280;54230;52.402;6.276;2023-04-07T16:50:01;101960.0;;;15.8;61.7
67345;BME280;54230;52.402;6.276;2023-04-07T16:55:00;101960.0;;;15.9;61.2
67345;BME280;54230;52.402;6.276;2023-04-07T17:00:00;101960.0;;;15.7;63.2
67345;BME280;54230;52.402;6.276;2023-04-07T17:05:00;101970.0;;;15.6;61.2
67345;BME280;54230;52.402;6.276;2023-04-07T17:10:00;101970.0;;;14.9;61.0
67345;BME280;54230;52.402;6.276;2023-04-07T17:15:00;101970.0;;;14.5;62.1
67345;BME280;54230;52.402;6.276;2023-04-07T17:20:00;101980.0;;;14.4;63.1
67345;BME280;54230;52.402;6.276;2023-04-07T17:25:00;101980.0;;;14.2;63.3
67345;BME280;54230;52.402;6.276;2023-04-07T17:30:01;101980.0;;;14.0;64.4
67345;BME280;54230;52.402;6.276;2023-04-07T17:35:00;102000.0;;;14.1;65.3
67345;BME280;54230;52.402;6.276;2023-04-07T17:40:00;102000.0;;;14.1;65.1
67345;BME280;54230;52.402;6.276;2023-04-07T17:45:00;102010.0;;;14.0;65.1
67345;BME280;54230;52.402;6.276;2023-04-07T17:50:00;102020.0;;;13.7;65.8
67345;BME280;54230;52.402;6.276;2023-04-07T17:55:00;102030.0;;;13.5;67.1
67345;BME280;54230;52.402;6.276;2023-04-07T18:00:00;102040.0;;;13.6;67.3
67345;BME280;54230;52.402;6.276;2023-04-07T18:05:00;102040.0;;;13.5;67.0
67345;BME280;54230;52.402;6.276;2023-04-07T18:10:02;102050.0;;;13.3;67.7
67345;BME280;54230;52.402;6.276;2023-04-07T18:15:00;102050.0;;;13.3;67.8
67345;BME280;54230;52.402;6.276;2023-04-07T18:20:00;102060.0;;;13.3;68.6
67345;BME280;54230;52.402;6.276;2023-04-07T18:25:00;102060.0;;;13.1;69.8
67345;BME280;54230;52.402;6.276;2023-04-07T18:30:00;102070.0;;;13.0;70.0
67345;BME280;54230;52.402;6.276;2023-04-07T18:35:00;102070.0;;;13.0;69.9
67345;BME280;54230;52.402;6.276;2023-04-07T18:40:00;102080.0;;;13.0;70.1
67345;BME280;54230;52.402;6.276;2023-04-07T18:45:00;102080.0;;;12.9;70.7
67345;BME280;54230;52.402;6.276;2023-04-07T18:50:00;102090.0;;;12.9;70.5
67345;BME280;54230;52.402;6.276;2023-04-07T18:55:00;102090.0;;;12.9;70.9
67345;BME280;54230;52.402;6.276;2023-04-07T19:00:00;102100.0;;;12.8;71.6
67345;BME280;54230;52.402;6.276;2023-04-07T19:05:00;102110.0;;;12.8;71.3
67345;BME280;54230;52.402;6.276;2023-04-07T19:10:00;102110.0;;;12.8;71.1
67345;BME280;54230;52.402;6.276;2023-04-07T19:15:00;102110.0;;;12.6;72.3
67345;BME280;54230;52.402;6.276;2023-04-07T19:20:00;102120.0;;;12.5;73.0
67345;BME280;54230;52.402;6.276;2023-04-07T19:25:00;102130.0;;;12.4;73.5
67345;BME280;54230;52.402;6.276;2023-04-07T19:30:00;102130.0;;;12.2;74.1
67345;BME280;54230;52.402;6.276;2023-04-07T19:35:00;102140.0;;;12.0;74.4
67345;BME280;54230;52.402;6.276;2023-04-07T19:40:00;102150.0;;;11.8;74.9
67345;BME280;54230;52.402;6.276;2023-04-07T19:45:00;102150.0;;;11.6;75.2
67345;BME280;54230;52.402;6.276;2023-04-07T19:50:00;102160.0;;;11.4;75.0
67345;BME280;54230;52.402;6.276;2023-04-07T19:55:01;102160.0;;;11.2;74.9
67345;BME280;54230;52.402;6.276;2023-04-07T20:00:00;102160.0;;;11.1;75.3
67345;BME280;54230;52.402;6.276;2023-04-07T20:05:00;102160.0;;;10.9;75.4
67345;BME280;54230;52.402;6.276;2023-04-07T20:10:00;102170.0;;;10.7;77.1
67345;BME280;54230;52.402;6.276;2023-04-07T20:15:00;102170.0;;;10.6;76.9
67345;BME280;54230;52.402;6.276;2023-04-07T20:20:00;102170.0;;;10.4;77.5
67345;BME280;54230;52.402;6.276;2023-04-07T20:25:00;102170.0;;;10.3;78.1
67345;BME280;54230;52.402;6.276;2023-04-07T20:30:00;102180.0;;;10.2;77.7
67345;BME280;54230;52.402;6.276;2023-04-07T20:35:02;102190.0;;;10.1;76.7
67345;BME280;54230;52.402;6.276;2023-04-07T20:40:00;102190.0;;;10.1;76.9
67345;BME280;54230;52.402;6.276;2023-04-07T20:45:00;102190.0;;;9.9;76.2
67345;BME280;54230;52.402;6.276;2023-04-07T20:50:00;102200.0;;;9.8;76.0
67345;BME280;54230;52.402;6.276;2023-04-07T20:55:00;102200.0;;;9.8;76.1
67345;BME280;54230;52.402;6.276;2023-04-07T21:00:00;102210.0;;;9.5;78.1
67345;BME280;54230;52.402;6.276;2023-04-07T21:05:00;102210.0;;;9.3;79.1
67345;BME280;54230;52.402;6.276;2023-04-07T21:10:00;102210.0;;;9.3;78.5
67345;BME280;54230;52.402;6.276;2023-04-07T21:15:00;102210.0;;;9.2;76.4
67345;BME280;54230;52.402;6.276;2023-04-07T21:20:00;102210.0;;;9.1;76.9
67345;BME280;54230;52.402;6.276;2023-04-07T21:25:00;102220.0;;;8.9;78.6
67345;BME280;54230;52.402;6.276;2023-04-07T21:30:02;102210.0;;;8.7;79.5
67345;BME280;54230;52.402;6.276;2023-04-07T21:35:00;102200.0;;;8.6;79.4
67345;BME280;54230;52.402;6.276;2023-04-07T21:40:00;102200.0;;;8.5;79.2
67345;BME280;54230;52.402;6.276;2023-04-07T21:45:00;102200.0;;;8.6;77.7
67345;BME280;54230;52.402;6.276;2023-04-07T21:50:00;102200.0;;;8.5;77.9
67345;BME280;54230;52.402;6.276;2023-04-07T21:55:00;102200.0;;;8.4;76.0
67345;BME280;54230;52.402;6.276;2023-04-07T22:00:00;102200.0;;;8.4;76.2
67345;BME280;54230;52.402;6.276;2023-04-07T22:05:00;102200.0;;;8.3;77.6
67345;BME280;54230;52.402;6.276;2023-04-07T22:10:00;102210.0;;;8.1;78.0
67345;BME280;54230;52.402;6.276;2023-04-07T22:15:00;102210.0;;;8.0;77.7
67345;BME280;54230;52.402;6.276;2023-04-07T22:20:00;102220.0;;;8.0;77.4
67345;BME280;54230;52.402;6.276;2023-04-07T22:25:00;102220.0;;;7.9;77.5
67345;BME280;54230;52.402;6.276;2023-04-07T22:30:01;102230.0;;;7.9;77.6
67345;BME280;54230;52.402;6.276;2023-04-07T22:35:00;102230.0;;;7.9;79.0
67345;BME280;54230;52.402;6.276;2023-04-07T22:40:00;102240.0;;;7.9;80.7
67345;BME280;54230;52.402;6.276;2023-04-07T22:45:00;102240.0;;;8.4;83.5
67345;BME280;54230;52.402;6.276;2023-04-07T22:50:00;102250.0;;;8.6;83.0
67345;BME280;54230;52.402;6.276;2023-04-07T22:55:00;102250.0;;;8.6;82.1
67345;BME280;54230;52.402;6.276;2023-04-07T23:00:00;102250.0;;;8.7;82.3
67345;BME280;54230;52.402;6.276;2023-04-07T23:05:00;102260.0;;;8.6;81.3
67345;BME280;54230;52.402;6.276;2023-04-07T23:10:00;102260.0;;;8.4;79.4
67345;BME280;54230;52.402;6.276;2023-04-07T23:15:00;102260.0;;;8.2;78.3
67345;BME280;54230;52.402;6.276;2023-04-07T23:20:00;102260.0;;;8.0;77.7
67345;BME280;54230;52.402;6.276;2023-04-07T23:25:00;102270.0;;;7.9;77.3
67345;BME280;54230;52.402;6.276;2023-04-07T23:30:00;102270.0;;;7.8;76.4
67345;BME280;54230;52.402;6.276;2023-04-07T23:35:00;102280.0;;;7.7;75.9
67345;BME280;54230;52.402;6.276;2023-04-07T23:40:00;102280.0;;;7.6;74.8
67345;BME280;54230;52.402;6.276;2023-04-07T23:45:00;102280.0;;;7.5;73.4
67345;BME280;54230;52.402;6.276;2023-04-07T23:50:00;102280.0;;;7.5;73.3
67345;BME280;54230;52.402;6.276;2023-04-07T23:55:00;102280.0;;;7.4;72.3
